x

8452951 - Potter Cove, Prudence Island, Ri (ptcr1) Weather Station

3:54 - Fri 26th May 2017 All times are EDT. -4 hours from GMT.

  • Wind
  • Aire Temp 57°f
  • Sea Pressure 1002.2mb
  • 8452951 - Potter Cove, Prudence Island, Ri
  • 8452951 - Potter Cove, Prudence Island, Ri

More Historic Weather Station data

Upgrade to MSW Pro to gain access to the past 30 days of data for over 8000 Wavebouys and Weather Stations around the globe.

Join Pro

Comparision Forecast

View Surf forecast
   
vie 05/26 3:54  -  2 mph 1002.2mb 57f
3:48 1 3 mph 1002.1mb 57f
3:42 2 3 mph 1002.1mb 57f
3:36 2 5 mph 1002.1mb 57f
3:30 3 6 mph 1002.1mb 57f
3:24 3 6 mph 1002.1mb 57f
3:18 5 8 mph 1002.1mb 56f
3:12 5 8 mph 1002mb 56f
3:06 3 8 mph 1002mb 56f
3:00 5 8 mph 1001.9mb 56f
2:54 3 8 mph 1001.8mb 56f
2:48 5 8 mph 1001.8mb 56f
2:42 5 8 mph 1001.8mb 56f
2:36 5 9 mph 1001.8mb 56f
2:30 6 10 mph 1001.8mb 55f
2:24 5 9 mph 1001.8mb 55f
2:18 7 13 mph 1001.7mb 55f
2:12 6 14 mph 1001.7mb 55f
2:06 6 13 mph 1001.7mb 55f
2:00 3 7 mph 1001.6mb 56f
1:54 5 11 mph 1001.5mb 56f
1:48 6 8 mph 1001.5mb 56f
1:42 3 7 mph 1001.4mb 56f
1:36 3 7 mph 1001.4mb 56f
1:30 5 10 mph 1001.4mb 56f
1:24 6 13 mph 1001.3mb 56f
1:18 6 11 mph 1001.2mb 56f
1:12 6 10 mph 1001.1mb 56f
1:06 5 13 mph 1001mb 56f
1:00 6 10 mph 1000.9mb 55f
12:54 3 8 mph 1000.9mb 55f
12:48 5 10 mph 1000.7mb 56f
12:42 5 10 mph 1000.7mb 54f
12:36 3 7 mph 1000.7mb 54f
12:30 3 9 mph 1000.6mb 54f
12:24 5 13 mph 1000.5mb 53f
12:18 3 8 mph 1000.5mb 53f
12:12 5 10 mph 1000.4mb 53f
12:06 5 11 mph 1000.4mb 53f
12:00 5 11 mph 1000.3mb 53f
11:54 5 8 mph 1000.3mb 53f
11:48 5 11 mph 1000.2mb 53f
11:42 6 11 mph 1000.2mb 53f
11:36 8 15 mph 1000.2mb 53f
11:30 6 11 mph 1000mb 53f
11:24 7 16 mph 1000.1mb 53f
11:18 7 15 mph 1000mb 52f
11:12 5 10 mph 999.9mb 53f
11:06 6 13 mph 999.8mb 53f
11:00 3 10 mph 999.7mb 53f
10:54 5 10 mph 999.6mb 53f
10:48 5 13 mph 999.5mb 53f
10:42 5 14 mph 999.4mb 52f
10:36 6 13 mph 999.3mb 52f
10:30 7 15 mph 999.2mb 52f
10:24 6 13 mph 999.2mb 51f
10:18 7 13 mph 999.1mb 51f
10:12 3 11 mph 999mb 51f
10:06 6 14 mph 998.8mb 51f
10:00 3 8 mph 998.7mb 51f
9:54 6 11 mph 998.7mb 51f
9:48 6 13 mph 998.6mb 51f
9:42 6 14 mph 998.6mb 51f
9:36 6 10 mph 998.5mb 51f
9:30 6 11 mph 998.5mb 51f
9:24 6 13 mph 998.4mb 50f
9:18 7 14 mph 998.4mb 50f
9:12 5 9 mph 998.3mb 50f
9:06 6 13 mph 998.3mb 50f
9:00 5 10 mph 998.3mb 50f
8:54 6 11 mph 998.2mb 51f
8:48 6 13 mph - -
8:42 3 7 mph 998.1mb 51f
8:36 6 11 mph 998.1mb 51f
8:30 5 10 mph 998.1mb 51f
8:24 6 13 mph 997.9mb 51f
8:18 5 8 mph 997.8mb 51f
8:12 5 8 mph 997.8mb 51f
8:06 8 15 mph 997.7mb 51f
8:00 7 13 mph 997.6mb 51f
7:54 6 10 mph 997.5mb 51f
7:48 7 10 mph 997.5mb 51f
7:42 6 9 mph 997.5mb 51f
7:36 6 9 mph 997.5mb 51f
7:30 6 9 mph 997.5mb 51f
7:24 7 10 mph 997.4mb 51f
7:18 7 10 mph 997.5mb 51f
7:12 7 11 mph 997.5mb 51f
7:06 7 10 mph 997.6mb 51f
7:00 7 10 mph 997.6mb 51f
6:54 7 9 mph 997.7mb 51f
6:48 6 8 mph 997.7mb 51f
6:42 6 10 mph 997.7mb 52f
6:36 7 10 mph 997.7mb 51f
6:30 7 10 mph 997.7mb 52f
6:24 7 11 mph 997.6mb 52f
6:18 8 11 mph 997.6mb 52f
6:12 8 11 mph 997.4mb 52f
6:06 7 10 mph 997.5mb 52f
6:00 7 9 mph 997.5mb 52f
5:54 7 10 mph 997.6mb 52f
5:48 7 10 mph 997.6mb 52f
5:42 8 11 mph 997.6mb 52f
5:36 8 11 mph 997.6mb 52f
5:30 10 15 mph 997.7mb 52f
5:24 10 16 mph 997.6mb 52f
5:18 10 15 mph 997.7mb 52f
5:12 13 16 mph 997.7mb 52f
5:06 10 14 mph 997.7mb 52f
5:00 9 14 mph 997.9mb 52f
4:48 9 13 mph - -
4:42 9 14 mph 997.6mb 52f
4:36 9 14 mph 997.5mb 53f
4:30 9 13 mph 997.3mb 53f
4:24 10 14 mph 997.3mb 53f
4:18 10 14 mph 997.4mb 53f
4:12 10 14 mph 997.2mb 53f
4:06 11 14 mph 997.4mb 53f
4:00 9 13 mph 997.5mb 53f
3:54 9 11 mph 997.7mb 53f
3:48 9 13 mph 997.9mb 53f
3:42 6 9 mph 998mb 53f
3:36 7 8 mph 998.3mb 52f
3:30 1 5 mph 998.5mb 52f
3:24 2 5 mph 998.8mb 52f
3:18 5 10 mph - -
3:12 9 15 mph 998.3mb 53f
3:06 14 17 mph 998mb 53f
3:00 13 17 mph 997.9mb 53f
2:48 14 21 mph 997.8mb 53f
2:42 13 18 mph 997.8mb 53f
2:36 14 20 mph 997.9mb 53f
2:30 14 21 mph 998mb 53f
2:24 16 22 mph 997.9mb 53f
2:18 18 24 mph 997.8mb 53f
2:12 18 24 mph 998mb 53f
2:06 17 23 mph 998.1mb 53f
2:00 17 23 mph 998.5mb 53f
1:54 16 23 mph 998.5mb 53f
1:48 14 22 mph 998.7mb 53f
1:42 13 20 mph 998.9mb 53f
1:36 10 17 mph 999mb 53f
1:30 10 17 mph 999.3mb 53f
1:24 10 18 mph 999.2mb 53f
1:18 9 17 mph 999.1mb 53f
1:12 9 14 mph 999.3mb 53f
1:06 8 14 mph 999.6mb 52f
1:00 7 13 mph 999.8mb 52f
12:54 6 10 mph 999.9mb 53f
12:48 5 9 mph 1000mb 53f
12:42 5 9 mph 1000mb 53f
12:36 6 10 mph 1000.4mb 53f
12:30 6 10 mph 1000.6mb 53f
12:24 5 8 mph 1000.6mb 53f
12:18 8 10 mph 1001mb 53f
12:12 5 9 mph 1000.7mb 53f
12:06 10 15 mph 1000.7mb 53f
12:00 7 11 mph 999.9mb 53f
jue 05/25 11:54 10 15 mph 1000.7mb 53f
11:48 14 22 mph 1000.6mb 53f
11:42 16 22 mph 999.9mb 54f
11:36 16 21 mph 999.6mb 54f
11:30 17 22 mph 999.5mb 54f
11:24 16 23 mph 999.7mb 54f
11:18 15 22 mph - -
11:12 14 18 mph 1000.2mb 54f
11:06 16 22 mph 1000.6mb 54f
11:00 14 20 mph 1000.3mb 54f
10:54 13 17 mph 1000.8mb 54f
10:48 14 18 mph 1001.2mb 54f
10:42 13 17 mph 1001.3mb 54f
10:36 11 16 mph 1001.3mb 54f
10:30 10 14 mph 1001.5mb 54f
10:24 10 14 mph 1001.9mb 54f
10:18 14 18 mph 1002mb 54f
10:12 15 20 mph 1001.7mb 54f
10:06 16 21 mph 1001.7mb 54f
10:00 15 20 mph 1001.8mb 54f
9:54 15 20 mph 1001.9mb 54f
9:48 13 17 mph - -
9:42 15 20 mph 1002.3mb 55f
9:36 13 15 mph 1002.4mb 54f
9:30 11 16 mph 1002.6mb 54f
9:24 11 16 mph 1002.8mb 55f
9:18 11 16 mph 1002.7mb 54f
9:12 13 16 mph 1002.7mb 55f
9:06 13 17 mph 1002.8mb 55f
9:00 10 15 mph 1002.9mb 55f
8:54 10 14 mph 1003.1mb 55f
8:48 11 15 mph 1003mb 55f
8:42 10 15 mph 1003mb 55f
8:36 11 15 mph 1003mb 55f
8:30 11 15 mph 1003.1mb 55f
8:24 10 14 mph 1003mb 55f
8:18 11 15 mph - -
8:12 11 15 mph 1003.2mb 55f
8:06 10 15 mph 1003.2mb 55f
8:00 10 14 mph 1003.1mb 55f
7:54 11 14 mph 1003.1mb 55f
7:48 10 14 mph 1003mb 55f
7:42 10 16 mph 1003.1mb 55f
7:36 11 15 mph 1003.1mb 55f
7:30 13 15 mph 1003.2mb 55f
7:24 11 15 mph 1003.1mb 55f
7:18 11 14 mph 1003.2mb 55f
7:12 11 14 mph 1003.5mb 55f
7:06 10 14 mph 1003.6mb 55f
7:00 10 13 mph 1003.6mb 55f
6:48 11 15 mph 1003.7mb -
6:42 9 13 mph 1003.6mb 55f
6:36 11 15 mph 1003.9mb 55f
6:30 11 16 mph 1003.8mb 56f
6:24 11 16 mph 1003.8mb 56f
6:18 11 14 mph 1003.5mb 56f
6:12 11 16 mph 1004mb 55f
6:06 11 15 mph 1003.7mb 55f
6:00 13 17 mph 1003.3mb 56f
5:48 11 16 mph 1002.9mb 56f
5:42 13 17 mph 1003mb 56f
5:36 14 18 mph 1002.8mb 56f
5:30 15 20 mph 1002.9mb 56f
5:24 13 16 mph 1003mb 56f
5:18 11 16 mph 1003.6mb 56f
5:12 11 16 mph 1003.9mb 56f
5:06 11 15 mph 1003.9mb 56f
5:00 11 15 mph 1004.1mb 56f
4:54 13 17 mph 1004.2mb 56f
4:48 11 16 mph 1003.9mb 56f
4:42 13 16 mph 1004.1mb 56f
4:36 10 15 mph 1003.9mb 56f
4:30 11 16 mph 1004mb 56f
4:24 10 14 mph 1003.9mb 56f
4:18 9 13 mph 1004.3mb 57f
4:12 11 16 mph 1004.4mb 57f
4:06 10 16 mph 1004.4mb 57f
4:00 10 14 mph 1004.6mb 57f
3:54 11 15 mph 1004.7mb 57f
3:48 11 14 mph 1004.5mb 57f
3:42 10 14 mph 1004.6mb 57f
3:36 10 14 mph 1004.8mb 57f
3:30 11 14 mph 1004.8mb 57f
3:24 10 15 mph 1004.8mb 56f
3:18 10 14 mph 1004.9mb 56f
3:12 11 16 mph 1004.9mb 57f
3:06 13 17 mph 1004.9mb 57f
3:00 13 17 mph 1004.8mb 57f
2:54 10 15 mph 1005mb 57f
2:48 11 17 mph 1005.2mb 57f
2:42 10 14 mph 1005.2mb 56f
2:36 9 13 mph 1005.4mb 57f
2:30 11 15 mph 1005.6mb 57f
2:24 11 16 mph 1005.3mb 57f
2:18 10 15 mph 1005.2mb 57f
2:12 9 13 mph 1005.6mb 57f
2:06 9 14 mph 1005.8mb 56f
2:00 10 14 mph 1005.9mb 56f
1:54 10 14 mph 1005.7mb 57f
1:48 9 13 mph 1005.9mb 57f
1:42 11 15 mph 1005.8mb 57f
1:36 10 14 mph 1005.8mb 56f
1:30 11 15 mph 1005.9mb 57f
1:24 10 16 mph 1005.9mb 57f
1:18 11 16 mph 1005.9mb 57f
1:12 11 15 mph 1006.2mb 56f
1:06 9 13 mph 1006.5mb 56f
1:00 9 13 mph 1006.5mb 56f
12:54 9 11 mph 1006.6mb 57f
12:48 9 14 mph 1006.5mb 57f
12:42 9 15 mph 1006.6mb 57f
12:36 11 16 mph 1006.7mb 57f
12:30 10 15 mph 1006.6mb 57f
12:24 10 15 mph 1006.7mb 57f
12:18 10 17 mph 1006.8mb 56f
12:12 10 17 mph 1006.8mb 57f
12:06 11 16 mph 1006.8mb 57f
12:00 11 17 mph 1006.8mb 57f
11:54 11 16 mph 1006.9mb 57f
11:48 14 22 mph 1006.8mb 57f
11:42 14 18 mph 1006.7mb 57f
11:36 15 24 mph 1006.8mb 57f
11:30 16 22 mph 1006.8mb 57f
11:24 16 24 mph 1006.9mb 57f
11:18 16 21 mph 1007.2mb 57f
11:12 15 22 mph 1007.4mb 57f
11:06 15 21 mph 1007.4mb 57f
11:00 13 16 mph 1007.4mb 57f
10:54 10 16 mph 1007.8mb 57f
10:48 13 20 mph 1007.9mb 57f
10:42 15 22 mph 1007.4mb 57f
10:36 16 22 mph 1007.2mb 57f
10:30 15 23 mph 1007.1mb 57f
10:24 14 20 mph 1007mb 57f
10:18 10 16 mph 1007.3mb 57f
10:12 13 16 mph 1007.5mb 57f
10:06 14 20 mph 1007.8mb 57f
10:00 13 18 mph 1007.8mb 56f
9:54 11 18 mph 1008.3mb 56f
9:48 13 17 mph 1008.6mb 56f
9:42 10 15 mph 1008.7mb 56f
9:36 13 17 mph 1008.7mb 56f
9:30 10 17 mph 1008.7mb 56f
9:24 10 15 mph 1008.7mb 56f
9:18 11 16 mph 1008.7mb 56f
9:12 11 17 mph 1008.8mb 56f
9:06 13 17 mph 1008.6mb 56f
9:00 14 18 mph 1008.6mb 56f
8:54 11 16 mph 1008.6mb 56f
8:48 11 16 mph 1008.7mb 56f
8:42 10 15 mph 1008.9mb 56f
8:36 11 17 mph 1009.1mb 56f
8:30 9 14 mph 1009.1mb 56f
8:24 11 16 mph 1009.1mb 56f
8:18 10 15 mph 1009.2mb 56f
8:12 10 15 mph 1009.2mb 56f
8:06 10 16 mph 1009.2mb 56f
8:00 9 14 mph 1009.4mb 55f
7:54 9 14 mph 1009.5mb 56f
7:48 9 15 mph 1009.6mb 56f
7:42 11 16 mph 1009.6mb 56f
7:36 9 14 mph 1009.6mb 56f
7:30 10 15 mph 1009.6mb 56f
7:24 9 15 mph 1009.5mb 56f
7:18 10 15 mph 1009.5mb 56f
7:12 9 11 mph 1009.5mb 56f
7:06 9 14 mph 1009.6mb 56f
7:00 9 11 mph 1009.6mb 56f
6:54 9 13 mph 1009.7mb 56f
6:48 9 13 mph 1009.6mb 56f
6:42 10 14 mph 1009.5mb 56f
6:36 10 14 mph 1009.4mb 56f
6:30 10 14 mph 1009.4mb 55f
6:24 10 14 mph 1009.6mb 56f
6:18 9 13 mph 1009.7mb 55f
6:12 7 10 mph 1009.8mb 56f
6:06 8 11 mph 1009.9mb 56f
6:00 8 11 mph 1009.9mb 55f
5:54 8 10 mph 1010.1mb 55f
5:48 7 10 mph 1009.9mb 55f
5:42 9 13 mph 1009.8mb 55f
5:36 9 13 mph 1009.6mb 55f
5:30 8 13 mph 1009.6mb 55f
5:24 8 13 mph 1009.8mb 55f
5:18 7 13 mph 1009.8mb 55f
5:12 7 11 mph 1009.7mb 56f
5:06 7 10 mph 1009.8mb 55f
5:00 6 9 mph 1009.9mb 55f
4:54 7 11 mph 1010.1mb 55f
4:48 8 13 mph 1010.1mb 55f
4:42 9 13 mph 1009.9mb 55f
4:36 9 11 mph 1009.9mb 55f
4:30 8 10 mph 1009.8mb 55f
4:24 7 9 mph 1010mb 55f
4:18 6 8 mph 1010.2mb 55f
4:12 6 9 mph 1010.4mb 55f
4:06 6 9 mph 1010.2mb 55f
4:00 7 9 mph 1010.1mb 55f
3:54 6 8 mph 1010.2mb 55f
3:48 6 8 mph 1010.3mb 54f
3:42 7 9 mph 1010.2mb 54f
3:36 7 10 mph 1010.1mb 54f
3:30 8 11 mph 1010mb 54f
3:24 7 10 mph 1009.9mb 54f
3:18 7 10 mph 1010.2mb 54f
3:12 7 9 mph 1010.3mb 54f
3:06 7 10 mph 1010.2mb 55f
3:00 7 10 mph 1010.2mb 54f
2:54 8 11 mph 1010.1mb 55f
2:48 8 13 mph - -
2:42 8 13 mph 1009.9mb 55f
2:36 8 11 mph 1009.9mb 55f
2:30 8 13 mph 1009.8mb 55f
2:24 7 10 mph 1010mb 55f
2:18 7 9 mph 1010.2mb 55f
2:12 6 9 mph 1010.2mb 55f
2:06 7 9 mph 1010.2mb 55f
2:00 7 10 mph 1010.2mb 55f
1:54 7 10 mph 1010.2mb 55f
1:48 7 9 mph 1010.3mb 55f
1:42 7 9 mph 1010.4mb 55f
1:36 6 9 mph 1010.6mb 55f
1:30 6 8 mph 1010.8mb 55f
1:24 6 8 mph 1010.9mb 55f
1:18 6 8 mph 1010.9mb 55f
1:12 6 8 mph 1011mb 55f
1:06 6 7 mph 1011.2mb 55f
1:00 6 8 mph 1011.2mb 55f
12:54 5 7 mph 1011.2mb 55f
12:48 6 7 mph 1011.3mb 55f
12:42 5 7 mph 1011.2mb 55f
12:36 5 7 mph 1011.3mb 55f
12:30 5 7 mph 1011.2mb 55f
12:24 6 8 mph 1011.2mb 55f
12:18 6 8 mph 1011.2mb 56f
12:12 6 8 mph 1011.2mb 56f
12:06 6 8 mph 1011.1mb 56f
12:00 6 8 mph 1011.1mb 56f
mié 05/24 11:54 6 8 mph 1011.1mb 56f
11:48 5 7 mph - -
11:42 6 7 mph 1011.1mb 56f
11:36 5 8 mph 1011.2mb 56f
11:30 6 8 mph 1011.1mb 56f
11:24 6 9 mph 1011mb 56f
11:18 6 8 mph 1011mb 57f
11:12 6 8 mph 1011mb 57f
11:06 7 9 mph 1011mb 57f
11:00 7 9 mph 1010.7mb 57f
10:54 6 8 mph 1010.5mb 57f
10:48 6 8 mph 1010.7mb 57f
10:42 7 9 mph 1010.5mb 57f
10:36 6 10 mph 1010.5mb 58f
10:30 6 8 mph 1010.7mb 58f
10:24 6 9 mph 1010.7mb 58f
10:18 7 9 mph - -
10:12 7 10 mph 1010.5mb 58f
10:06 8 10 mph 1010.5mb 58f
10:00 7 11 mph 1010.6mb 58f
9:54 8 13 mph 1010.8mb 58f
9:48 9 13 mph 1010.8mb 58f
9:42 8 13 mph 1011mb 58f
9:36 8 13 mph 1011mb 59f
9:30 10 14 mph 1010.9mb 59f
9:24 9 14 mph 1010.8mb 59f
9:18 9 14 mph 1010.8mb 59f
9:12 9 14 mph 1010.9mb 59f
9:06 9 14 mph 1010.7mb 59f
9:00 10 14 mph 1010.6mb 59f
8:54 10 14 mph 1010.5mb 59f
8:48 9 14 mph - -
8:42 8 13 mph 1010.6mb 59f
8:36 9 13 mph 1010.5mb 60f
8:30 8 13 mph 1010.5mb 60f
8:24 9 13 mph 1010.4mb 60f
8:18 8 11 mph 1010.2mb 60f
8:12 9 11 mph 1010.1mb 60f
8:06 9 13 mph 1009.8mb 60f
8:00 8 11 mph 1009.6mb -
7:54 10 14 mph 1009.5mb 61f
7:48 10 14 mph 1009.3mb -
7:42 10 15 mph 1009mb 61f
7:36 10 16 mph 1008.8mb 61f
7:30 10 15 mph 1008.6mb -
7:24 10 14 mph 1008.4mb 61f
7:18 10 15 mph 1008.3mb 62f
7:12 9 14 mph 1008.5mb 62f
7:06 10 14 mph 1008.3mb 62f
7:00 9 14 mph 1008.4mb 62f
6:54 10 14 mph 1008.6mb 62f
6:48 10 15 mph 1008.5mb 63f
6:42 10 16 mph 1008.4mb 63f
6:36 11 16 mph 1008.7mb 63f
6:30 9 14 mph 1008.6mb 64f
6:24 9 14 mph 1008.8mb 64f
6:18 9 13 mph - -
6:12 9 11 mph 1008.9mb 65f
6:06 8 10 mph 1009.1mb 65f
6:00 8 10 mph 1009.1mb 65f
5:54 7 9 mph 1009.1mb 65f
5:48 7 9 mph 1009.2mb 65f
5:42 7 11 mph 1009.2mb 65f
5:36 7 9 mph 1009.3mb 65f
5:30 9 13 mph 1009mb 65f
5:24 8 11 mph 1008.9mb 65f
5:18 8 10 mph 1008.9mb 65f
5:12 9 13 mph 1009.1mb 65f
5:06 7 10 mph 1008.9mb 65f
5:00 8 11 mph 1008.6mb 66f
4:54 9 13 mph 1008.4mb 67f
4:48 7 9 mph 1008.3mb 65f
4:42 7 10 mph 1008.2mb 66f
4:36 8 10 mph 1008.2mb 66f
4:30 9 11 mph 1008.1mb 67f
4:24 8 13 mph 1008mb 67f
4:18 9 10 mph 1008mb 67f
4:12 9 11 mph 1008.1mb 67f
4:06 9 13 mph 1008mb 67f
4:00 7 10 mph 1008mb 67f
3:54 5 7 mph 1007.8mb 67f
3:48 6 8 mph 1007.8mb 67f
3:42 6 8 mph 1007.7mb 67f
3:36 6 8 mph 1007.6mb 67f
3:30 8 11 mph 1007.5mb 67f
3:24 7 11 mph 1007.5mb 67f
3:18 6 10 mph 1007.4mb 66f
3:12 8 13 mph 1007.1mb 67f
3:06 9 13 mph 1006.9mb 68f
3:00 9 14 mph 1007.1mb 68f
2:54 10 13 mph 1007mb 68f
2:48 11 15 mph 1007.1mb 67f
2:42 10 14 mph 1007.3mb 67f
2:36 10 14 mph 1007.6mb 67f
2:30 8 14 mph 1007.6mb 67f
2:24 7 9 mph 1007.7mb 67f
2:18 8 10 mph 1007.9mb 68f
2:12 5 6 mph 1007.8mb 67f
2:06 5 6 mph 1008mb 67f
2:00 5 6 mph 1008.2mb 66f
1:54 3 6 mph 1008.3mb 66f
1:48 5 6 mph 1008.4mb 66f
1:42 5 7 mph 1008.4mb 65f
1:36 5 6 mph 1008.4mb 66f
1:30 6 9 mph 1008.4mb 66f
1:24 6 7 mph 1008.2mb 66f
1:18 5 7 mph 1008.2mb 65f
1:12 5 7 mph 1008.1mb 66f
1:06 3 5 mph 1008.2mb 65f
1:00 6 7 mph 1008.3mb 66f
12:54 6 7 mph 1008mb 65f
12:48 6 8 mph 1008.1mb 65f
12:42 6 9 mph 1008.2mb 66f
12:36 6 9 mph 1008.2mb 65f
12:30 6 8 mph 1008.1mb 65f
12:24 7 9 mph 1007.9mb 65f
12:18 5 7 mph 1007.9mb 65f
12:12 5 7 mph 1008.3mb 65f
12:06 7 8 mph 1008mb 65f
12:00 6 9 mph 1008mb 65f
11:54 6 8 mph 1008.1mb 66f
11:48 6 7 mph 1008.2mb 65f
11:42 5 7 mph 1008.2mb 64f
11:36 6 8 mph 1008.3mb 65f
11:30 5 8 mph 1008.2mb 65f
11:24 5 7 mph 1008.2mb 65f
11:18 6 9 mph 1008.2mb 65f
11:12 5 7 mph 1008.2mb 64f
11:06 6 9 mph 1008mb 65f
11:00 5 8 mph 1007.9mb 64f
10:54 6 8 mph 1007.9mb 64f
10:48 6 9 mph 1008mb 63f
10:42 7 10 mph 1007.9mb 64f
10:36 6 9 mph 1007.8mb 64f
10:30 6 9 mph 1007.7mb 63f
10:24 6 8 mph 1007.7mb 63f
10:18 6 9 mph 1007.5mb 61f
10:12 6 8 mph 1007.4mb 62f
10:06 7 10 mph 1007.4mb 62f
10:00 6 9 mph 1007.4mb 61f
9:54 8 10 mph 1007.5mb 61f
9:48 6 8 mph 1007.2mb 60f
9:42 7 9 mph 1007.4mb 60f
9:36 6 9 mph 1007.6mb 60f
9:30 7 9 mph 1007.4mb 60f
9:24 7 8 mph 1007.4mb 59f
9:18 6 8 mph 1007.6mb 59f
9:12 6 9 mph 1007.7mb 59f
9:06 6 8 mph 1007.7mb 59f
9:00 6 8 mph 1007.8mb 59f
8:54 6 8 mph 1007.9mb 59f
8:48 6 8 mph 1007.9mb 59f
8:42 6 8 mph 1007.9mb 59f
8:36 6 7 mph 1007.9mb 59f
8:30 5 7 mph 1007.9mb 59f
8:24 3 6 mph 1008mb 58f
8:18 5 6 mph 1008.1mb 58f
8:12 3 5 mph 1008.1mb 58f
8:06  -  1 mph 1008mb 58f
8:00  -  1 mph 1007.9mb 58f
7:54  -  2 mph 1007.8mb 58f
7:48 2 3 mph 1007.9mb 57f
7:42  -  0 mph 1007.9mb 58f
7:36  -  0 mph 1007.8mb 58f
7:30 1 5 mph 1007.8mb 58f
7:24 1 3 mph 1007.7mb 57f
7:18 2 5 mph 1007.7mb 57f
7:12  -  2 mph 1007.6mb 57f
7:06 2 3 mph 1007.7mb 57f
7:00 2 5 mph 1007.7mb 57f
6:54 2 5 mph 1007.6mb 57f
6:48 1 2 mph 1007.7mb 57f
6:42 2 3 mph 1007.6mb 57f
6:36 3 5 mph 1007.6mb 57f
6:30 2 5 mph 1007.5mb 57f
6:24 2 5 mph 1007.3mb 57f
6:18 2 5 mph 1007.4mb 56f
6:12 2 5 mph 1007.4mb 56f
6:06 3 5 mph 1007.4mb 56f
6:00 2 5 mph 1007.5mb 56f
5:54 1 3 mph 1007.6mb 56f
5:48  -  2 mph 1007.8mb 56f
5:42  -  1 mph 1007.8mb 56f
5:36  -  1 mph 1007.8mb 56f
5:30  -  1 mph 1007.9mb 56f
5:24  -  1 mph 1007.9mb 55f
5:18  -  1 mph 1007.9mb 55f
5:12 1 2 mph 1007.8mb 55f
5:06 1 2 mph 1007.8mb 56f
5:00  -  0 mph 1007.7mb 55f
4:54 1 2 mph 1007.7mb 55f
4:48  -  0 mph 1007.7mb 55f
4:42  -  0 mph 1007.6mb 55f
4:36  -  0 mph 1007.5mb 55f
4:30  -  1 mph 1007.5mb 55f
4:24  -  0 mph 1007.5mb 55f
4:18  -  1 mph 1007.5mb 55f
4:12  -  0 mph 1007.6mb 55f
4:06  -  0 mph 1007.7mb 55f
4:00  -  0 mph 1007.7mb 55f
3:54  -  0 mph 1007.6mb 55f
3:48  -  1 mph 1007.6mb 56f
3:42 1 3 mph 1007.6mb 55f
3:36 1 2 mph 1007.6mb 55f
3:30  -  1 mph 1007.7mb 55f
3:24  -  0 mph 1007.8mb 55f
3:18  -  1 mph 1008mb 55f
3:12 2 2 mph 1008.2mb 55f
3:06  -  1 mph 1008.3mb 55f
3:00  -  0 mph 1008.3mb 55f
2:54 1 1 mph 1008.2mb 55f
2:48  -  0 mph 1008.1mb -
2:42  -  1 mph 1008.2mb -
2:36  -  1 mph 1008.2mb -
2:30  -  0 mph 1008.1mb 56f
2:24  -  0 mph 1008.2mb 56f
2:18  -  1 mph 1008.4mb 56f
2:12 1 3 mph 1008.6mb 56f
2:06 2 6 mph 1008.4mb 56f
2:00 2 5 mph 1008.4mb 56f
1:54 3 6 mph 1008.6mb 56f
1:48 3 7 mph 1008.9mb 56f
1:42 2 6 mph 1008.9mb 56f
1:36 3 6 mph 1008.8mb 56f
1:30 3 7 mph 1008.9mb 56f
1:24 2 6 mph 1008.9mb 56f
1:18 2 6 mph 1009mb 56f
1:12 2 3 mph 1008.9mb 56f
1:06 1 2 mph 1008.7mb 56f
1:00 1 2 mph 1008.8mb 56f
12:54  -  1 mph 1008.9mb 56f
12:48 1 2 mph 1008.9mb 57f
12:42 2 5 mph 1008.9mb 57f
12:36 3 6 mph 1009.1mb 57f
12:30 2 6 mph 1009.1mb 57f
12:24 2 5 mph 1009.2mb 56f
12:18 2 5 mph 1009.5mb 56f
12:12 2 6 mph 1009.7mb 56f
12:06 2 5 mph 1009.9mb 56f
12:00 2 5 mph 1009.9mb 56f
mar 05/23 11:54 2 6 mph 1009.8mb 56f
11:48 3 6 mph 1009.9mb 56f
11:42 3 7 mph 1010mb 56f
11:36 5 9 mph 1009.9mb 56f
11:30 5 8 mph 1010.1mb 56f
11:24 5 8 mph 1010mb 56f
11:18 5 9 mph 1010.1mb 57f
11:12 5 9 mph 1010.1mb 57f
11:06 6 9 mph 1010.1mb 57f
11:00 6 9 mph 1010.1mb 57f
10:54 5 8 mph 1010mb 57f
10:48 5 8 mph 1010.1mb 57f
10:42 3 7 mph 1010.1mb 58f
10:36 3 8 mph 1010.2mb 58f
10:30 2 6 mph 1010.2mb 58f
10:24 3 6 mph 1010.3mb 58f
10:18 3 7 mph 1010.3mb 58f
10:12 3 6 mph 1010.4mb 58f
10:06 2 6 mph 1010.4mb 58f
10:00 3 6 mph 1010.4mb 58f
9:54 1 3 mph 1010.2mb 58f
9:48 3 6 mph 1010.4mb -
9:42 2 5 mph 1010.1mb 58f
9:36 2 6 mph 1010.2mb 58f
9:30 3 7 mph 1010.1mb -
9:24 3 6 mph 1009.9mb 58f
9:18 3 5 mph - -
9:12 3 6 mph 1009.9mb 58f
9:06 3 7 mph 1010.1mb 58f
9:00 5 8 mph 1010.2mb 58f
8:54 5 7 mph 1010.2mb 58f
8:48 5 9 mph 1010.2mb 58f
8:42 5 8 mph 1010mb 58f
8:36 5 8 mph 1010.1mb 58f
8:30 5 7 mph 1010mb 59f
8:24 3 8 mph 1010mb 59f
8:18 3 8 mph - -
8:12 5 6 mph 1010mb 60f
8:06 3 6 mph 1009.9mb 60f
8:00 3 6 mph 1009.7mb -
7:54 3 8 mph 1009.7mb 61f
7:48 3 6 mph - -
7:42 5 8 mph 1009.5mb 62f
7:36 3 7 mph 1009.6mb 62f
7:30 3 7 mph 1009.5mb 62f
7:24 5 8 mph 1009.6mb 62f
7:18 2 7 mph 1009.6mb 63f
7:06 5 7 mph 1009.5mb 64f
7:00 5 8 mph 1009.4mb -
6:54 3 6 mph 1009.4mb 64f
6:48 5 8 mph 1009.6mb -
6:42 3 7 mph 1009.6mb 64f
6:36 3 6 mph 1009.6mb 64f
6:30 3 7 mph 1009.5mb 64f
6:24 5 8 mph 1009.5mb 64f
6:18 5 10 mph 1009.6mb 65f
6:12 6 10 mph 1009.7mb 65f
6:06 6 8 mph 1009.6mb 66f
6:00 5 8 mph 1009.5mb 66f
5:54 5 7 mph 1009.3mb 66f
5:48 2 3 mph 1009.4mb 67f
5:42 3 6 mph 1009.6mb 67f
5:36 2 5 mph 1009.7mb 68f
5:30 1 2 mph 1009.7mb 70f
5:24  -  2 mph 1009.6mb 71f
5:18 2 3 mph 1009.6mb 70f
5:12 1 3 mph 1009.6mb 70f
5:06 1 3 mph 1009.5mb 70f
5:00  -  2 mph 1009.7mb 70f
4:54  -  2 mph 1009.8mb 70f
4:48  -  1 mph 1009.9mb 70f
4:42  -  1 mph 1009.7mb 70f
4:36 1 2 mph 1009.7mb 70f
4:30 1 2 mph 1009.8mb 70f
4:24  -  1 mph 1009.7mb 71f
4:18  -  1 mph 1009.7mb 71f
4:12  -  1 mph 1009.8mb 70f
4:06  -  2 mph 1009.9mb 70f
4:00 2 3 mph 1009.9mb 69f
3:54 3 5 mph 1010.1mb 69f
3:48 6 7 mph 1010.2mb 68f
3:42 6 7 mph 1010.2mb 68f
3:36 5 6 mph 1010.2mb 69f
3:30 6 8 mph 1010.3mb 69f
3:24 5 7 mph 1010.3mb 69f
3:18 6 8 mph 1010.3mb 70f
3:12 6 9 mph 1010.3mb 70f
3:06 7 11 mph 1010.3mb 70f
3:00 6 9 mph 1010.3mb 70f
2:54 6 9 mph 1010.3mb 69f
2:48 6 8 mph 1010.4mb 69f
2:42 6 9 mph 1010.4mb 69f
2:36 5 6 mph 1010.4mb 69f
2:30 5 7 mph 1010.6mb 69f
2:24 6 7 mph 1010.6mb 69f
2:18 6 8 mph 1010.4mb 69f
2:12 5 8 mph 1010.5mb 69f
2:06 6 9 mph 1010.6mb 69f
2:00 3 7 mph 1010.6mb 69f
1:54 6 9 mph 1010.7mb 69f
1:48 5 7 mph 1010.8mb 69f
1:42 3 8 mph 1010.9mb 69f
1:36 2 5 mph 1011.1mb 68f
1:30 2 3 mph 1011mb 69f
1:24 3 6 mph 1011.1mb 67f
1:18 5 6 mph 1011.1mb 67f
1:12 5 7 mph 1011.2mb 67f
1:06 5 6 mph 1011.3mb 66f
1:00 5 6 mph 1011.4mb 66f
12:54 6 7 mph 1011.4mb 66f
12:48 6 7 mph - -
12:42 6 9 mph 1011.7mb 65f
12:36 7 10 mph 1011.9mb 65f
12:30 7 9 mph 1011.9mb 65f
12:24 8 11 mph 1012.1mb 65f
12:18 8 11 mph 1012.2mb 65f
12:12 8 11 mph 1012.4mb 65f
12:06 8 13 mph 1012.6mb 65f
12:00 8 13 mph 1012.6mb 66f
11:54 8 11 mph 1012.7mb 65f
11:48 9 14 mph 1012.6mb 65f
11:42 9 11 mph 1012.6mb 64f
11:36 7 9 mph 1012.7mb 64f
11:30 8 13 mph 1012.6mb 64f
11:24 7 9 mph 1012.5mb 64f
11:18 7 11 mph 1012.5mb 63f
11:12 8 10 mph 1012.5mb 64f
11:06 9 11 mph 1012.4mb 63f
11:00 7 10 mph 1012.6mb 63f
10:54 9 14 mph 1012.9mb 63f
10:48 10 14 mph 1012.8mb 63f
10:42 10 14 mph 1012.8mb 62f
10:36 10 14 mph 1012.7mb 63f
10:30 9 13 mph 1012.7mb 62f
10:24 8 11 mph 1012.7mb 62f
10:18 8 11 mph 1012.7mb 61f
10:12 7 9 mph 1012.7mb 60f
10:06 8 11 mph 1012.8mb 61f
10:00 9 11 mph 1012.9mb 60f
9:54 7 11 mph 1013mb 60f
9:48 6 8 mph 1013.1mb 60f
9:42 7 10 mph 1013.2mb 61f
9:36 7 10 mph 1013.3mb 60f
9:30 7 11 mph 1013.3mb 59f
9:24 7 11 mph 1013.3mb 58f
9:18 6 9 mph - -
9:12 7 10 mph 1013.4mb 58f
9:06 6 8 mph 1013.3mb 58f
9:00 7 9 mph 1013.3mb 59f
8:54 7 13 mph 1013.3mb 58f
8:48 7 9 mph 1013.4mb 59f
8:42 8 11 mph 1013.2mb 58f
8:36 7 10 mph 1013.6mb 56f
8:30 7 10 mph 1013.5mb 56f
8:24 7 10 mph 1013.4mb 56f
8:18 10 14 mph 1013.4mb 56f
8:12 9 14 mph 1013.4mb 56f
8:06 7 11 mph 1013.4mb 57f
8:00 8 13 mph 1013.4mb 56f
7:54 7 13 mph 1013.4mb 56f
7:48 6 9 mph 1013.4mb 56f
7:42 7 11 mph 1013.3mb 56f
7:36 7 13 mph 1013.3mb 55f
7:30 8 13 mph 1013.3mb 55f
7:24 9 13 mph 1013.3mb 55f
7:18 8 11 mph 1013.2mb 55f
7:12 7 10 mph 1013.1mb 55f
7:06 6 10 mph 1013.2mb 55f
7:00 6 9 mph 1013.3mb 55f
6:54 7 10 mph 1013.3mb 55f
6:48 8 10 mph 1013.2mb 55f
6:42 7 10 mph 1013.1mb 55f
6:36 6 8 mph 1013.2mb 55f
6:30 5 7 mph 1013.3mb 55f
6:24 5 7 mph 1013.2mb 55f
6:18 6 8 mph - -
6:12 6 8 mph 1013.4mb 55f
6:06 6 9 mph 1013.4mb 54f
6:00 6 10 mph 1013.3mb 54f
5:54 6 9 mph 1013.1mb 54f
5:48 6 8 mph 1013.1mb 55f
5:42 8 10 mph 1013.1mb 55f
5:36 7 13 mph 1013mb 54f
5:30 7 10 mph 1012.9mb 55f
5:24 7 11 mph 1012.9mb 55f
5:18 7 10 mph 1012.9mb 55f
5:12 7 11 mph 1012.9mb 55f
5:06 8 11 mph 1012.6mb 55f
5:00 7 13 mph 1012.6mb 55f
4:54 6 9 mph 1012.7mb 55f
4:48 6 9 mph 1012.7mb 55f
4:42 6 9 mph 1012.6mb 55f
4:36 6 9 mph 1012.7mb 55f
4:30 6 9 mph 1012.7mb 55f
4:24 5 7 mph 1012.6mb 55f
4:18 7 9 mph 1012.6mb 55f
4:12 6 9 mph 1012.8mb 55f
4:06 7 13 mph 1012.8mb 55f
4:00 7 11 mph 1012.7mb 55f
3:54 7 11 mph 1012.7mb 55f
3:48 7 11 mph 1012.7mb 55f
3:42 6 9 mph 1012.6mb 56f
3:36 7 11 mph 1012.6mb 56f
3:30 7 11 mph 1012.7mb 56f
3:24 7 10 mph 1012.7mb 56f
3:18 5 8 mph 1012.6mb 57f
3:12 3 6 mph 1012.5mb 57f
3:06 2 6 mph 1012.4mb 57f
3:00 3 5 mph 1012.3mb 57f
2:54 2 5 mph 1012.3mb 57f
2:48  -  1 mph 1012.4mb 57f
2:42  -  2 mph 1012.3mb -
2:36 1 2 mph 1012.4mb -
2:30 2 3 mph 1012.5mb 57f
2:24  -  2 mph 1012.7mb 57f
2:18  -  0 mph 1012.7mb 57f
2:12  -  0 mph 1012.6mb 57f
2:06  -  1 mph 1012.7mb 57f
2:00  -  1 mph 1012.7mb 57f
1:54  -  0 mph 1012.8mb 57f
1:48  -  1 mph 1012.8mb 57f
1:42  -  1 mph 1012.8mb 57f
1:36  -  2 mph 1012.8mb 57f
1:30  -  1 mph 1012.7mb 57f
1:24  -  2 mph 1012.7mb 57f
1:18 2 5 mph - -
1:12 2 3 mph 1013mb 57f
1:06 1 3 mph 1013mb 57f
1:00 1 3 mph 1013mb 57f
12:54 2 3 mph 1013.1mb 57f
12:48 2 5 mph 1013.2mb 57f
12:42 2 5 mph 1013.3mb 57f
12:36 2 6 mph 1013.3mb 57f
12:30 2 5 mph 1013.5mb 57f
12:24 2 5 mph 1013.6mb 57f
12:18 2 6 mph 1013.8mb 57f
12:12 2 6 mph 1013.9mb 57f
12:06 3 6 mph 1013.9mb 57f
12:00 5 8 mph 1013.9mb 56f
lun 05/22 11:54 5 7 mph 1013.8mb 56f
11:48 3 8 mph - -
11:42 3 6 mph 1013.9mb 56f
11:36 5 10 mph 1013.9mb 56f
11:30 5 8 mph 1014mb 56f
11:24 6 13 mph 1014mb 56f
11:18 5 8 mph 1014mb 57f
11:12 6 13 mph 1014mb 57f
11:06 5 8 mph 1014.1mb 57f
11:00 3 11 mph 1014.1mb 56f
10:54 6 11 mph 1014.2mb 56f
10:48 7 17 mph 1014.2mb 56f
10:42 6 10 mph 1014.3mb 56f
10:36 7 17 mph 1014.4mb 57f
10:30 8 14 mph 1014.5mb 57f
10:24 5 9 mph 1014.6mb 57f
10:18 6 15 mph 1014.8mb 57f
10:12 6 10 mph 1014.8mb 57f
10:06 6 11 mph 1014.9mb 57f
10:00 7 13 mph 1015mb 57f
9:54 7 14 mph 1014.9mb 58f
9:48 6 13 mph 1014.8mb 58f
9:42 3 10 mph 1014.8mb 57f
9:36 6 17 mph 1014.9mb 57f
9:30 5 11 mph 1014.9mb -
9:24 6 14 mph 1014.9mb 57f
9:18 6 14 mph 1014.8mb -
9:12 5 14 mph 1015mb 57f
9:06 6 14 mph 1015mb 56f